createdAt,value
2022-09-25T00:00:58.389Z,81
2022-09-25T00:02:05.583Z,81
2022-09-25T00:03:12.524Z,82
2022-09-25T00:04:19.666Z,82
2022-09-25T00:05:26.287Z,82
2022-09-25T00:07:40.436Z,82
2022-09-25T00:08:47.790Z,82
2022-09-25T00:09:54.141Z,82
2022-09-25T00:11:01.803Z,82
2022-09-25T00:12:08.331Z,82
2022-09-25T00:13:15.482Z,82
2022-09-25T00:14:22.617Z,82
2022-09-25T00:15:29.656Z,82
2022-09-25T00:17:43.341Z,82
2022-09-25T00:18:50.488Z,81
2022-09-25T00:19:57.590Z,82
2022-09-25T00:21:04.173Z,82
2022-09-25T00:22:11.246Z,82
2022-09-25T00:23:18.404Z,82
2022-09-25T00:24:25.487Z,82
2022-09-25T00:25:32.528Z,82
2022-09-25T00:26:39.727Z,83
2022-09-25T00:27:46.290Z,83
2022-09-25T00:28:53.382Z,83
2022-09-25T00:30:00.557Z,83
2022-09-25T00:31:07.697Z,83
2022-09-25T00:32:14.302Z,83
2022-09-25T00:33:21.266Z,83
2022-09-25T00:35:35.468Z,84
2022-09-25T00:36:42.583Z,84
2022-09-25T00:37:49.192Z,84
2022-09-25T00:40:03.451Z,84
2022-09-25T00:41:10.491Z,84
2022-09-25T00:42:17.616Z,84
2022-09-25T00:43:24.140Z,84
2022-09-25T00:44:31.324Z,84
2022-09-25T00:45:38.385Z,85
2022-09-25T00:46:45.498Z,85
2022-09-25T00:47:52.610Z,85
2022-09-25T00:48:59.226Z,85
2022-09-25T00:50:06.327Z,85
2022-09-25T00:51:13.354Z,85
2022-09-25T00:52:20.611Z,85
2022-09-25T00:53:27.625Z,85
2022-09-25T00:54:34.209Z,85
2022-09-25T00:55:41.302Z,85
2022-09-25T00:56:48.923Z,85
2022-09-25T00:59:02.616Z,85
2022-09-25T01:00:09.251Z,85
2022-09-25T01:01:16.394Z,85
2022-09-25T01:03:30.546Z,85
2022-09-25T01:04:37.622Z,85
2022-09-25T01:05:44.210Z,86
2022-09-25T01:06:51.399Z,86
2022-09-25T01:07:58.403Z,86
2022-09-25T01:09:05.541Z,86
2022-09-25T01:10:12.794Z,86
2022-09-25T01:11:19.229Z,86
2022-09-25T01:12:26.320Z,86
2022-09-25T01:13:33.390Z,86
2022-09-25T01:14:40.514Z,86
2022-09-25T01:15:47.676Z,86
2022-09-25T01:16:54.302Z,86
2022-09-25T01:18:01.400Z,86
2022-09-25T01:19:08.442Z,86
2022-09-25T01:20:15.696Z,86
2022-09-25T01:21:22.153Z,86
2022-09-25T01:22:29.270Z,86
2022-09-25T01:23:36.396Z,86
2022-09-25T01:31:25.875Z,87
2022-09-25T01:32:32.182Z,87
2022-09-25T01:33:39.272Z,87
2022-09-25T01:34:46.312Z,87
2022-09-25T01:35:53.444Z,87
2022-09-25T01:37:00.571Z,87
2022-09-25T01:38:07.662Z,87
2022-09-25T01:40:21.396Z,87
2022-09-25T01:41:28.507Z,88
2022-09-25T01:43:42.153Z,88
2022-09-25T01:44:49.313Z,88
2022-09-25T01:45:56.461Z,88
2022-09-25T01:47:03.442Z,88
2022-09-25T01:48:10.609Z,88
2022-09-25T01:49:17.195Z,88
2022-09-25T01:50:24.277Z,88
2022-09-25T01:51:31.402Z,88
2022-09-25T01:52:38.528Z,88
2022-09-25T01:53:47.866Z,88
2022-09-25T01:54:52.207Z,88
2022-09-25T01:55:59.364Z,88
2022-09-25T01:57:06.417Z,88
2022-09-25T01:59:20.602Z,89
2022-09-25T02:00:27.185Z,89
2022-09-25T02:01:34.976Z,89
2022-09-25T02:02:41.501Z,89
2022-09-25T02:03:48.499Z,89
2022-09-25T02:04:55.556Z,89
2022-09-25T02:06:02.219Z,90
2022-09-25T02:07:09.313Z,90
2022-09-25T02:08:16.406Z,90
2022-09-25T02:09:23.459Z,90
2022-09-25T02:10:30.616Z,90
2022-09-25T02:11:37.265Z,90
2022-09-25T02:12:44.281Z,90
2022-09-25T02:13:51.397Z,90
2022-09-25T02:14:58.551Z,90
2022-09-25T02:16:05.658Z,90
2022-09-25T02:17:12.264Z,90
2022-09-25T02:18:19.367Z,90
2022-09-25T02:19:26.419Z,90
2022-09-25T02:21:40.065Z,90
2022-09-25T02:22:47.265Z,90
2022-09-25T02:23:54.302Z,90
2022-09-25T02:25:01.478Z,90
2022-09-25T02:26:08.552Z,91
2022-09-25T02:27:15.609Z,91
2022-09-25T02:28:22.242Z,91
2022-09-25T02:29:29.340Z,91
2022-09-25T02:31:43.502Z,91
2022-09-25T02:32:50.211Z,91
2022-09-25T02:33:57.254Z,91
2022-09-25T02:35:04.344Z,91
2022-09-25T02:36:11.473Z,91
2022-09-25T02:37:18.572Z,91
2022-09-25T02:38:25.079Z,91
2022-09-25T02:39:32.359Z,91
2022-09-25T02:40:39.417Z,91
2022-09-25T02:41:46.484Z,91
2022-09-25T02:42:53.506Z,91
2022-09-25T02:44:00.142Z,92
2022-09-25T02:45:07.244Z,92
2022-09-25T02:46:14.530Z,92
2022-09-25T02:47:21.446Z,92
2022-09-25T02:48:28.580Z,92
2022-09-25T02:49:35.111Z,92
2022-09-25T02:50:42.296Z,92
2022-09-25T02:51:49.402Z,91
2022-09-25T02:52:56.447Z,92
2022-09-25T02:54:03.610Z,92
2022-09-25T02:55:10.172Z,92
2022-09-25T02:56:17.271Z,92
2022-09-25T02:57:24.441Z,92
2022-09-25T02:58:31.471Z,92
2022-09-25T02:59:38.560Z,92
2022-09-25T03:00:45.670Z,92
2022-09-25T03:02:59.652Z,92
2022-09-25T03:04:06.537Z,92
2022-09-25T03:05:13.563Z,92
2022-09-25T03:06:20.186Z,92
2022-09-25T03:07:27.787Z,92
2022-09-25T03:08:34.474Z,92
2022-09-25T03:09:41.431Z,92
2022-09-25T03:10:48.601Z,92
2022-09-25T03:11:55.166Z,92
2022-09-25T03:13:02.281Z,92
2022-09-25T03:14:09.511Z,92
2022-09-25T03:15:16.478Z,92
2022-09-25T03:16:23.694Z,92
2022-09-25T03:17:30.161Z,92
2022-09-25T03:18:37.319Z,92
2022-09-25T03:19:44.420Z,92
2022-09-25T03:20:51.495Z,92
2022-09-25T03:21:58.102Z,92
2022-09-25T03:23:05.374Z,92
2022-09-25T03:24:12.498Z,92
2022-09-25T03:25:19.461Z,92
2022-09-25T03:26:26.534Z,92
2022-09-25T03:27:33.050Z,92
2022-09-25T03:29:47.342Z,92
2022-09-25T03:30:54.545Z,92
2022-09-25T03:32:01.643Z,92
2022-09-25T03:33:08.087Z,92
2022-09-25T03:34:15.223Z,92
2022-09-25T03:35:22.295Z,92
2022-09-25T03:36:29.411Z,93
2022-09-25T03:37:36.510Z,93
2022-09-25T03:38:43.632Z,93
2022-09-25T03:39:50.196Z,93
2022-09-25T03:40:57.415Z,93
2022-09-25T03:42:04.421Z,93
2022-09-25T03:44:18.255Z,93
2022-09-25T03:45:25.203Z,93
2022-09-25T03:46:32.433Z,93
2022-09-25T03:47:39.503Z,93
2022-09-25T03:48:46.534Z,93
2022-09-25T03:49:53.100Z,93
2022-09-25T03:51:00.302Z,93
2022-09-25T03:52:07.362Z,94
2022-09-25T03:53:14.440Z,93
2022-09-25T03:54:21.581Z,93
2022-09-25T03:55:28.149Z,93
2022-09-25T03:57:42.342Z,94
2022-09-25T03:59:56.537Z,94
2022-09-25T04:01:04.246Z,94
2022-09-25T04:02:10.355Z,95
2022-09-25T04:03:17.376Z,95
2022-09-25T04:04:24.397Z,95
2022-09-25T04:05:31.558Z,95
2022-09-25T04:06:38.163Z,96
2022-09-25T04:07:45.202Z,96
2022-09-25T04:08:52.484Z,96
2022-09-25T04:09:58.933Z,96
2022-09-25T04:09:59.471Z,96
2022-09-25T04:11:06.585Z,97
2022-09-25T04:12:13.142Z,97
2022-09-25T04:13:20.292Z,98
2022-09-25T04:14:27.403Z,98
2022-09-25T04:15:34.442Z,99
2022-09-25T04:16:41.661Z,98
2022-09-25T04:17:48.173Z,99
2022-09-25T04:18:55.265Z,99
2022-09-25T04:20:02.361Z,99
2022-09-25T04:21:09.579Z,99
2022-09-25T04:22:16.621Z,99
2022-09-25T04:23:23.113Z,99
2022-09-25T04:25:37.740Z,99
2022-09-25T04:26:44.467Z,99
2022-09-25T04:27:51.623Z,99
2022-09-25T04:28:58.186Z,99
2022-09-25T04:30:05.324Z,99
2022-09-25T04:31:13.497Z,99
2022-09-25T04:32:19.491Z,99
2022-09-25T04:33:26.145Z,99
2022-09-25T04:34:33.129Z,99
2022-09-25T04:35:41.414Z,99
2022-09-25T04:36:48.996Z,99
2022-09-25T04:37:54.453Z,99
2022-09-25T04:39:01.088Z,99
2022-09-25T04:40:08.354Z,99
2022-09-25T04:41:15.720Z,99
2022-09-25T04:42:23.406Z,99
2022-09-25T04:43:29.513Z,99
2022-09-25T04:44:36.132Z,99
2022-09-25T04:45:43.233Z,99
2022-09-25T04:46:50.523Z,99
2022-09-25T04:47:57.423Z,99
2022-09-25T04:49:04.491Z,99
2022-09-25T04:50:11.602Z,99
2022-09-25T04:51:18.244Z,99
2022-09-25T04:52:25.336Z,99
2022-09-25T04:53:32.382Z,99
2022-09-25T04:54:39.498Z,99
2022-09-25T04:55:46.238Z,99
2022-09-25T04:56:53.163Z,99
2022-09-25T04:58:00.396Z,99
2022-09-25T04:59:07.927Z,99
2022-09-25T05:00:14.552Z,99
2022-09-25T05:01:21.187Z,99
2022-09-25T05:02:28.391Z,99
2022-09-25T05:03:35.477Z,99
2022-09-25T05:04:42.419Z,99
2022-09-25T05:06:56.158Z,99
2022-09-25T05:08:03.193Z,99
2022-09-25T05:09:10.453Z,99
2022-09-25T05:10:17.460Z,99
2022-09-25T05:11:24.532Z,99
2022-09-25T05:13:38.253Z,99
2022-09-25T05:14:45.335Z,99
2022-09-25T05:15:52.453Z,99
2022-09-25T05:16:59.565Z,99
2022-09-25T05:18:06.163Z,99
2022-09-25T05:19:13.269Z,99
2022-09-25T05:20:20.421Z,99
2022-09-25T05:21:27.424Z,99
2022-09-25T05:22:34.517Z,99
2022-09-25T05:23:42.177Z,99
2022-09-25T05:24:48.235Z,99
2022-09-25T05:25:55.417Z,99
2022-09-25T05:28:09.562Z,99
2022-09-25T05:29:16.195Z,99
2022-09-25T05:30:23.253Z,99
2022-09-25T05:31:30.408Z,99
2022-09-25T05:32:37.513Z,99
2022-09-25T05:33:44.026Z,99
2022-09-25T05:34:51.169Z,99
2022-09-25T05:35:58.292Z,99
2022-09-25T05:37:05.313Z,99
2022-09-25T05:38:12.463Z,99
2022-09-25T05:39:19.565Z,99
2022-09-25T05:40:26.324Z,99
2022-09-25T05:41:33.229Z,99
2022-09-25T05:42:40.396Z,99
2022-09-25T05:43:47.479Z,99
2022-09-25T05:44:54.068Z,99
2022-09-25T05:46:01.242Z,99
2022-09-25T05:48:15.416Z,99
2022-09-25T05:49:22.548Z,99
2022-09-25T05:50:29.107Z,99
2022-09-25T05:51:36.215Z,99
2022-09-25T05:52:43.231Z,100
2022-09-25T05:53:50.420Z,100
2022-09-25T05:56:04.055Z,100
2022-09-25T05:57:11.200Z,100
2022-09-25T05:58:18.312Z,100
2022-09-25T05:59:25.472Z,100
2022-09-25T06:00:32.482Z,100
2022-09-25T06:01:39.278Z,100
2022-09-25T06:02:46.292Z,100
2022-09-25T06:03:53.244Z,100
2022-09-25T06:05:01.437Z,100
2022-09-25T06:06:07.485Z,100
2022-09-25T06:07:14.105Z,100
2022-09-25T06:08:21.185Z,100
2022-09-25T06:09:28.330Z,100
2022-09-25T06:10:35.456Z,100
2022-09-25T06:11:42.519Z,100
2022-09-25T06:12:49.119Z,100
2022-09-25T06:13:56.161Z,100
2022-09-25T06:15:03.281Z,100
2022-09-25T06:17:17.617Z,100
2022-09-25T06:18:24.056Z,100
2022-09-25T06:19:31.234Z,100
2022-09-25T06:20:38.341Z,100
2022-09-25T06:21:45.496Z,100
2022-09-25T06:22:53.231Z,100
2022-09-25T06:23:59.159Z,100
2022-09-25T06:25:06.242Z,100
2022-09-25T06:26:13.320Z,100
2022-09-25T06:27:20.485Z,100
2022-09-25T06:29:34.165Z,100
2022-09-25T06:30:41.257Z,100
2022-09-25T06:31:48.358Z,100
2022-09-25T06:32:55.430Z,100
2022-09-25T06:34:02.033Z,100
2022-09-25T06:35:09.162Z,100
2022-09-25T06:36:16.198Z,100
2022-09-25T06:37:23.292Z,100
2022-09-25T06:38:30.464Z,100
2022-09-25T06:39:37.030Z,100
2022-09-25T06:40:44.170Z,100
2022-09-25T06:41:51.256Z,100
2022-09-25T06:42:58.370Z,100
2022-09-25T06:44:05.441Z,100
2022-09-25T06:45:12.068Z,100
2022-09-25T06:46:20.346Z,100
2022-09-25T06:47:27.082Z,100
2022-09-25T06:48:33.325Z,100
2022-09-25T06:49:40.464Z,100
2022-09-25T06:50:47.059Z,100
2022-09-25T06:50:47.070Z,100
2022-09-25T06:51:54.108Z,100
2022-09-25T06:53:01.237Z,100
2022-09-25T06:54:08.399Z,100
2022-09-25T06:55:15.483Z,100
2022-09-25T06:56:22.057Z,100
2022-09-25T06:57:29.195Z,100
2022-09-25T06:58:36.312Z,100
2022-09-25T06:59:43.335Z,100
2022-09-25T07:00:50.481Z,100
2022-09-25T07:01:57.258Z,100
2022-09-25T07:03:04.245Z,100
2022-09-25T07:04:11.393Z,100
2022-09-25T07:05:18.395Z,100
2022-09-25T07:06:25.453Z,100
2022-09-25T07:07:32.093Z,100
2022-09-25T07:08:39.240Z,100
2022-09-25T07:10:53.361Z,100
2022-09-25T07:12:00.518Z,100
2022-09-25T07:13:07.118Z,100
2022-09-25T07:14:14.227Z,100
2022-09-25T07:15:21.273Z,100
2022-09-25T07:16:28.502Z,100
2022-09-25T07:17:35.621Z,100
2022-09-25T07:18:42.104Z,100
2022-09-25T07:20:56.298Z,100
2022-09-25T07:22:03.359Z,100
2022-09-25T07:23:10.522Z,100
2022-09-25T07:24:17.113Z,100
2022-09-25T07:25:24.394Z,100
2022-09-25T07:27:38.961Z,100
2022-09-25T07:28:45.941Z,100
2022-09-25T07:29:52.112Z,100
2022-09-25T07:30:59.322Z,100
2022-09-25T07:33:13.509Z,100
2022-09-25T07:34:20.579Z,100
2022-09-25T07:35:27.157Z,100
2022-09-25T07:36:34.207Z,100
2022-09-25T07:37:41.327Z,100
2022-09-25T07:38:48.415Z,100
2022-09-25T07:39:56.285Z,100
2022-09-25T07:41:02.144Z,100
2022-09-25T07:42:09.253Z,100
2022-09-25T07:43:16.365Z,100
2022-09-25T07:44:29.022Z,100
2022-09-25T07:45:30.063Z,100
2022-09-25T07:46:37.213Z,100
2022-09-25T07:47:44.228Z,100
2022-09-25T07:48:51.377Z,100
2022-09-25T07:49:58.464Z,100
2022-09-25T07:52:12.163Z,100
2022-09-25T07:53:19.304Z,100
2022-09-25T07:54:26.424Z,100
2022-09-25T07:55:33.408Z,100
2022-09-25T07:56:40.066Z,100
2022-09-25T07:57:47.165Z,100
2022-09-25T07:58:54.267Z,100
2022-09-25T08:00:01.349Z,100
2022-09-25T08:01:08.594Z,100
2022-09-25T08:02:15.169Z,100
2022-09-25T08:03:22.299Z,100
2022-09-25T08:04:29.291Z,100
2022-09-25T08:05:36.398Z,100
2022-09-25T08:06:43.470Z,100
2022-09-25T08:07:50.071Z,100
2022-09-25T08:08:58.213Z,100
2022-09-25T08:10:04.489Z,100
2022-09-25T08:11:11.394Z,100
2022-09-25T08:12:17.952Z,100
2022-09-25T08:13:25.060Z,100
2022-09-25T08:14:32.142Z,100
2022-09-25T08:15:39.697Z,100
2022-09-25T08:16:49.253Z,100
2022-09-25T08:17:52.922Z,100
2022-09-25T08:19:00.139Z,100
2022-09-25T08:20:07.154Z,100
2022-09-25T08:21:14.343Z,100
2022-09-25T08:22:21.324Z,100
2022-09-25T08:24:35.151Z,99
2022-09-25T08:25:42.177Z,99
2022-09-25T08:26:49.232Z,99
2022-09-25T08:27:56.417Z,99
2022-09-25T08:29:03.498Z,99
2022-09-25T08:30:10.716Z,99
2022-09-25T08:31:17.337Z,99
2022-09-25T08:33:31.529Z,99
2022-09-25T08:34:41.473Z,99
2022-09-25T08:35:45.530Z,99
2022-09-25T08:36:52.200Z,99
2022-09-25T08:37:59.323Z,99
2022-09-25T08:39:06.439Z,99
2022-09-25T08:40:13.550Z,99
2022-09-25T08:41:20.132Z,99
2022-09-25T08:42:27.196Z,99
2022-09-25T08:43:34.271Z,99
2022-09-25T08:44:52.654Z,99
2022-09-25T08:45:48.064Z,99
2022-09-25T08:46:55.094Z,99
2022-09-25T08:48:02.198Z,99
2022-09-25T08:49:09.331Z,99
2022-09-25T08:50:22.071Z,99
2022-09-25T08:51:27.216Z,99
2022-09-25T08:52:30.104Z,99
2022-09-25T08:53:37.198Z,99
2022-09-25T08:54:45.730Z,99
2022-09-25T08:55:51.462Z,99
2022-09-25T08:56:58.034Z,99
2022-09-25T08:58:05.096Z,99
2022-09-25T08:59:12.161Z,99
2022-09-25T09:01:26.493Z,99
2022-09-25T09:02:33.280Z,99
2022-09-25T09:03:40.114Z,99
2022-09-25T09:04:47.258Z,99
2022-09-25T09:05:54.373Z,99
2022-09-25T09:07:25.695Z,99
2022-09-25T09:09:15.152Z,99
2022-09-25T09:10:22.340Z,99
2022-09-25T09:11:29.368Z,99
2022-09-25T09:12:36.555Z,99
2022-09-25T09:13:42.974Z,99
2022-09-25T09:14:50.218Z,99
2022-09-25T09:15:57.338Z,99
2022-09-25T09:17:04.342Z,99
2022-09-25T09:18:11.430Z,98
2022-09-25T09:19:23.458Z,98
2022-09-25T09:20:25.210Z,98
2022-09-25T09:21:32.370Z,98
2022-09-25T09:22:39.345Z,98
2022-09-25T09:23:45.923Z,98
2022-09-25T09:24:53.123Z,98
2022-09-25T09:26:00.208Z,98
2022-09-25T09:28:14.394Z,98
2022-09-25T09:29:20.987Z,96
2022-09-25T09:30:28.130Z,96
2022-09-25T09:31:35.712Z,96
2022-09-25T09:32:42.253Z,94
2022-09-25T09:33:49.381Z,94
2022-09-25T09:35:05.313Z,93
2022-09-25T09:37:10.184Z,93
2022-09-25T09:38:17.341Z,93
2022-09-25T09:39:24.335Z,92
2022-09-25T09:40:31.530Z,92
2022-09-25T09:41:38.085Z,92
2022-09-25T09:42:45.157Z,92
2022-09-25T09:43:57.207Z,92
2022-09-25T09:44:59.507Z,92
2022-09-25T09:46:06.150Z,92
2022-09-25T09:47:13.116Z,92
2022-09-25T09:48:20.176Z,92
2022-09-25T09:49:27.288Z,92
2022-09-25T09:50:37.771Z,92
2022-09-25T09:51:40.985Z,92
2022-09-25T09:52:48.103Z,92
2022-09-25T09:53:55.139Z,92
2022-09-25T09:55:02.316Z,92
2022-09-25T09:56:09.488Z,92
2022-09-25T09:57:16.013Z,92
2022-09-25T09:58:23.146Z,92
2022-09-25T09:59:30.227Z,92
2022-09-25T10:00:38.294Z,92
2022-09-25T10:01:44.526Z,92
2022-09-25T10:02:51.143Z,92
2022-09-25T10:05:05.198Z,92
2022-09-25T10:06:12.346Z,92
2022-09-25T10:07:19.427Z,92
2022-09-25T10:08:26.023Z,92
2022-09-25T10:09:33.087Z,92
2022-09-25T10:10:40.209Z,92
2022-09-25T10:11:47.300Z,92
2022-09-25T10:12:55.022Z,92
2022-09-25T10:14:01.021Z,92
2022-09-25T10:15:08.121Z,92
2022-09-25T10:16:15.225Z,92
2022-09-25T10:17:22.360Z,92
2022-09-25T10:18:29.415Z,92
2022-09-25T10:19:36.043Z,92
2022-09-25T10:20:43.179Z,92
2022-09-25T10:21:50.253Z,92
2022-09-25T10:22:57.468Z,92
2022-09-25T10:24:04.624Z,92
2022-09-25T10:25:11.055Z,92
2022-09-25T10:26:18.146Z,92
2022-09-25T10:27:25.181Z,92
2022-09-25T10:29:39.528Z,92
2022-09-25T10:33:00.305Z,91
2022-09-25T10:34:07.434Z,91
2022-09-25T10:35:14.151Z,91
2022-09-25T10:36:21.085Z,90
2022-09-25T10:37:28.130Z,90
2022-09-25T10:38:35.208Z,90
2022-09-25T10:39:44.847Z,90
2022-09-25T10:40:49.050Z,90
2022-09-25T10:41:56.056Z,90
2022-09-25T10:43:03.166Z,89
2022-09-25T10:44:10.354Z,89
2022-09-25T10:45:17.334Z,89
2022-09-25T10:46:24.118Z,88
2022-09-25T10:47:31.087Z,88
2022-09-25T10:48:38.193Z,88
2022-09-25T10:49:45.269Z,88
2022-09-25T10:50:52.374Z,87
2022-09-25T10:51:59.487Z,87
2022-09-25T10:53:06.075Z,87
2022-09-25T10:54:13.646Z,87
2022-09-25T10:55:20.251Z,87
2022-09-25T10:56:27.358Z,87
2022-09-25T10:57:33.961Z,87
2022-09-25T10:58:41.036Z,87
2022-09-25T10:59:48.220Z,87
2022-09-25T11:00:55.291Z,87
2022-09-25T11:02:02.590Z,87
2022-09-25T11:03:14.733Z,87
2022-09-25T11:04:16.152Z,87
2022-09-25T11:05:23.133Z,87
2022-09-25T11:06:31.303Z,87
2022-09-25T11:07:37.410Z,87
2022-09-25T11:08:44.000Z,87
2022-09-25T11:09:51.086Z,87
2022-09-25T11:10:58.160Z,86
2022-09-25T11:12:05.251Z,87
2022-09-25T11:13:12.509Z,87
2022-09-25T11:14:19.044Z,87
2022-09-25T11:15:26.041Z,86
2022-09-25T11:16:33.242Z,86
2022-09-25T11:17:40.292Z,86
2022-09-25T11:18:47.404Z,86
2022-09-25T11:19:54.679Z,86
2022-09-25T11:21:01.039Z,86
2022-09-25T11:22:08.280Z,86
2022-09-25T11:23:15.316Z,86
2022-09-25T11:24:22.510Z,86
2022-09-25T11:25:29.069Z,86
2022-09-25T11:26:36.179Z,86
2022-09-25T11:27:43.213Z,86
2022-09-25T11:28:50.305Z,85
2022-09-25T11:29:57.062Z,85
2022-09-25T11:31:04.107Z,85
2022-09-25T11:32:11.083Z,85
2022-09-25T11:33:18.184Z,85
2022-09-25T11:35:33.165Z,84
2022-09-25T11:36:39.047Z,84
2022-09-25T11:37:46.152Z,84
2022-09-25T11:38:53.175Z,84
2022-09-25T11:40:00.409Z,84
2022-09-25T11:41:07.472Z,83
2022-09-25T11:42:13.960Z,83
2022-09-25T11:43:21.078Z,84
2022-09-25T11:44:28.197Z,84
2022-09-25T11:45:35.491Z,84
2022-09-25T11:46:41.966Z,84
2022-09-25T11:47:49.154Z,84
2022-09-25T11:48:56.139Z,84
2022-09-25T11:50:03.176Z,84
2022-09-25T11:51:10.363Z,84
2022-09-25T11:52:17.210Z,84
2022-09-25T11:53:24.030Z,84
2022-09-25T11:54:34.124Z,83
2022-09-25T11:55:42.795Z,83
2022-09-25T11:57:52.203Z,82
2022-09-25T11:58:59.065Z,82
2022-09-25T12:00:06.081Z,82
2022-09-25T12:01:13.312Z,82
2022-09-25T12:03:27.288Z,82
2022-09-25T12:04:38.052Z,82
2022-09-25T12:05:41.236Z,82
2022-09-25T12:06:49.478Z,82
2022-09-25T12:07:55.353Z,82
2022-09-25T12:09:02.063Z,82
2022-09-25T12:10:09.139Z,82
2022-09-25T12:11:16.147Z,82
2022-09-25T12:12:23.281Z,82
2022-09-25T12:13:30.448Z,81
2022-09-25T12:14:37.087Z,81
2022-09-25T12:15:44.084Z,81
2022-09-25T12:17:58.386Z,81
2022-09-25T12:19:04.954Z,81
2022-09-25T12:20:13.777Z,81
2022-09-25T12:21:19.060Z,81
2022-09-25T12:22:26.223Z,81
2022-09-25T12:23:33.327Z,81
2022-09-25T12:24:39.995Z,81
2022-09-25T12:25:47.076Z,81
2022-09-25T12:26:54.108Z,81
2022-09-25T12:28:01.207Z,81
2022-09-25T12:29:08.320Z,81
2022-09-25T12:31:22.123Z,81
2022-09-25T12:32:29.156Z,81
2022-09-25T12:33:36.244Z,81
2022-09-25T12:34:43.403Z,81
2022-09-25T12:35:50.004Z,82
2022-09-25T12:36:57.111Z,81
2022-09-25T12:39:11.166Z,82
2022-09-25T12:40:18.479Z,82
2022-09-25T12:41:24.915Z,82
2022-09-25T12:42:32.057Z,82
2022-09-25T12:43:39.083Z,82
2022-09-25T12:44:46.232Z,82
2022-09-25T12:45:53.402Z,82
2022-09-25T12:46:59.973Z,82
2022-09-25T12:48:07.011Z,83
2022-09-25T12:49:14.185Z,83
2022-09-25T12:50:21.315Z,83
2022-09-25T12:51:28.405Z,84
2022-09-25T12:52:35.513Z,84
2022-09-25T12:53:42.128Z,85
2022-09-25T12:54:49.203Z,85
2022-09-25T12:55:56.319Z,86
2022-09-25T12:57:03.267Z,86
2022-09-25T12:59:17.082Z,87
2022-09-25T13:00:24.220Z,88
2022-09-25T13:01:31.365Z,88
2022-09-25T13:02:38.383Z,88
2022-09-25T13:03:44.986Z,89
2022-09-25T13:04:53.028Z,89
2022-09-25T13:05:59.302Z,90
2022-09-25T13:07:06.370Z,91
2022-09-25T13:08:13.283Z,91
2022-09-25T13:09:20.076Z,91
2022-09-25T13:10:27.142Z,91
2022-09-25T13:11:34.086Z,91
2022-09-25T13:12:41.421Z,92
2022-09-25T13:13:48.458Z,92
2022-09-25T13:14:55.426Z,92
2022-09-25T13:16:02.100Z,92
2022-09-25T13:17:09.130Z,93
2022-09-25T13:18:16.498Z,93
2022-09-25T13:19:23.477Z,93
2022-09-25T13:20:30.047Z,93
2022-09-25T13:21:37.200Z,93
2022-09-25T13:22:44.177Z,93
2022-09-25T13:23:51.395Z,93
2022-09-25T13:26:04.976Z,94
2022-09-25T13:27:12.023Z,94
2022-09-25T13:28:19.326Z,94
2022-09-25T13:29:26.285Z,95
2022-09-25T13:30:32.985Z,95
2022-09-25T13:31:40.120Z,96
2022-09-25T13:32:47.663Z,96
2022-09-25T13:33:54.122Z,96
2022-09-25T13:35:01.533Z,97
2022-09-25T13:36:08.488Z,97
2022-09-25T13:37:14.898Z,98
2022-09-25T13:38:22.062Z,98
2022-09-25T13:40:38.688Z,98
2022-09-25T13:42:49.919Z,99
2022-09-25T13:43:57.193Z,99
2022-09-25T13:45:04.301Z,99
2022-09-25T13:46:11.656Z,99
2022-09-25T13:47:17.847Z,99
2022-09-25T13:48:25.013Z,99
2022-09-25T13:49:32.022Z,99
2022-09-25T13:50:39.164Z,99
2022-09-25T13:51:46.706Z,99
2022-09-25T13:52:52.928Z,99
2022-09-25T13:54:00.170Z,99
2022-09-25T13:55:07.179Z,99
2022-09-25T13:56:14.148Z,99
2022-09-25T13:57:21.285Z,99
2022-09-25T13:58:27.854Z,99
2022-09-25T13:59:35.045Z,99
2022-09-25T14:00:41.663Z,99
2022-09-25T14:01:49.380Z,99
2022-09-25T14:02:56.538Z,99
2022-09-25T14:04:03.487Z,99
2022-09-25T14:05:10.052Z,99
2022-09-25T14:06:17.099Z,99
2022-09-25T14:07:24.323Z,99
2022-09-25T14:08:31.552Z,99
2022-09-25T14:09:37.960Z,99
2022-09-25T14:10:45.100Z,99
2022-09-25T14:11:52.242Z,99
2022-09-25T14:13:02.132Z,99
2022-09-25T14:14:06.442Z,99
2022-09-25T14:15:13.030Z,99
2022-09-25T14:16:20.256Z,99
2022-09-25T14:17:27.289Z,99
2022-09-25T14:18:34.163Z,99
2022-09-25T14:19:41.601Z,99
2022-09-25T14:21:54.975Z,99
2022-09-25T14:23:02.351Z,99
2022-09-25T14:24:09.423Z,99
2022-09-25T14:25:17.201Z,99
2022-09-25T14:26:22.857Z,99
2022-09-25T14:27:30.011Z,99
2022-09-25T14:29:44.337Z,99
2022-09-25T14:30:51.650Z,99
2022-09-25T14:31:57.967Z,99
2022-09-25T14:33:05.189Z,99
2022-09-25T14:34:12.110Z,99
2022-09-25T14:35:19.359Z,99
2022-09-25T14:36:26.448Z,99
2022-09-25T14:37:32.992Z,99
2022-09-25T14:38:40.120Z,99
2022-09-25T14:39:47.274Z,99
2022-09-25T14:40:54.356Z,99
2022-09-25T14:42:01.333Z,99
2022-09-25T14:43:08.124Z,99
2022-09-25T14:44:15.177Z,99
2022-09-25T14:46:29.516Z,99
2022-09-25T14:47:36.573Z,99
2022-09-25T14:48:42.938Z,99
2022-09-25T14:49:50.056Z,99
2022-09-25T14:50:57.149Z,99
2022-09-25T14:52:04.224Z,99
2022-09-25T14:54:18.110Z,99
2022-09-25T14:55:25.149Z,99
2022-09-25T14:57:39.432Z,99
2022-09-25T14:58:45.982Z,99
2022-09-25T14:59:53.153Z,100
2022-09-25T15:01:00.333Z,100
2022-09-25T15:03:15.016Z,99
2022-09-25T15:04:20.849Z,99
2022-09-25T15:05:28.150Z,99
2022-09-25T15:06:35.247Z,99
2022-09-25T15:07:42.358Z,99
2022-09-25T15:08:49.469Z,99
2022-09-25T15:09:56.016Z,99
2022-09-25T15:11:03.110Z,99
2022-09-25T15:12:10.260Z,99
2022-09-25T15:13:17.404Z,99
2022-09-25T15:14:24.467Z,100
2022-09-25T15:15:31.046Z,100
2022-09-25T15:16:38.227Z,100
2022-09-25T15:17:45.240Z,100
2022-09-25T15:18:52.189Z,100
2022-09-25T15:19:59.288Z,100
2022-09-25T15:21:05.870Z,99
2022-09-25T15:22:13.161Z,99
2022-09-25T15:23:20.259Z,99
2022-09-25T15:24:27.510Z,100
2022-09-25T15:25:34.274Z,100
2022-09-25T15:26:40.877Z,99
2022-09-25T15:27:48.009Z,99
2022-09-25T15:28:55.215Z,99
2022-09-25T15:30:02.445Z,99
2022-09-25T15:31:08.829Z,100
2022-09-25T15:32:15.936Z,100
2022-09-25T15:33:23.176Z,100
2022-09-25T15:34:30.269Z,100
2022-09-25T15:35:37.484Z,100
2022-09-25T15:36:43.749Z,99
2022-09-25T15:37:51.051Z,99
2022-09-25T15:38:58.140Z,99
2022-09-25T15:40:05.064Z,99
2022-09-25T15:41:12.468Z,100
2022-09-25T15:42:19.600Z,99
2022-09-25T15:44:32.982Z,100
2022-09-25T15:45:40.545Z,100
2022-09-25T15:46:49.508Z,100
2022-09-25T15:47:54.016Z,100
2022-09-25T15:50:08.002Z,100
2022-09-25T15:51:15.349Z,100
2022-09-25T15:52:22.404Z,99
2022-09-25T15:53:28.809Z,99
2022-09-25T15:54:36.102Z,99
2022-09-25T15:55:43.145Z,99
2022-09-25T15:56:50.266Z,99
2022-09-25T15:57:57.457Z,99
2022-09-25T15:59:03.989Z,99
2022-09-25T16:00:11.079Z,99
2022-09-25T16:01:18.547Z,99
2022-09-25T16:02:25.119Z,99
2022-09-25T16:03:32.411Z,99
2022-09-25T16:04:39.505Z,99
2022-09-25T16:05:45.932Z,99
2022-09-25T16:06:53.176Z,99
2022-09-25T16:08:00.332Z,99
2022-09-25T16:09:07.546Z,99
2022-09-25T16:10:14.099Z,99
2022-09-25T16:11:21.153Z,99
2022-09-25T16:12:28.296Z,99
2022-09-25T16:13:36.531Z,99
2022-09-25T16:14:42.462Z,99
2022-09-25T16:15:48.893Z,99
2022-09-25T16:16:55.952Z,99
2022-09-25T16:18:05.973Z,99
2022-09-25T16:19:10.442Z,99
2022-09-25T16:20:17.489Z,99
2022-09-25T16:22:31.197Z,99
2022-09-25T16:23:38.275Z,99
2022-09-25T16:25:52.260Z,99
2022-09-25T16:28:06.084Z,99
2022-09-25T16:29:13.485Z,99
2022-09-25T16:30:20.327Z,99
2022-09-25T16:31:27.378Z,99
2022-09-25T16:32:33.817Z,99
2022-09-25T16:33:41.155Z,99
2022-09-25T16:34:48.199Z,99
2022-09-25T16:36:12.871Z,99
2022-09-25T16:37:02.085Z,99
2022-09-25T16:38:08.875Z,99
2022-09-25T16:39:16.212Z,99
2022-09-25T16:40:23.143Z,99
2022-09-25T16:41:30.173Z,99
2022-09-25T16:42:37.001Z,99
2022-09-25T16:43:44.005Z,99
2022-09-25T16:44:51.189Z,99
2022-09-25T16:45:58.313Z,99
2022-09-25T16:47:05.332Z,99
2022-09-25T16:48:11.996Z,99
2022-09-25T16:49:19.059Z,99
2022-09-25T16:50:26.125Z,99
2022-09-25T16:51:33.068Z,99
2022-09-25T16:53:47.484Z,99
2022-09-25T16:56:01.402Z,99
2022-09-25T16:57:08.273Z,99
2022-09-25T16:58:15.165Z,99
2022-09-25T16:59:21.997Z,99
2022-09-25T17:00:29.270Z,99
2022-09-25T17:01:36.148Z,99
2022-09-25T17:02:43.398Z,99
2022-09-25T17:03:50.383Z,99